Terminal Aerodrome Forecast
Issued by NWS Northern Indiana

Home | Current Version | Previous Version | Graphics & Text | Print | Product List | Glossary On
Versions: 1 2 3 4 5 6 7 8 9 10 11 12 13 14 15 16 17 18 19 20 21
233
FTUS43 KIWX 261300 AAA
TAFFWA
TAF AMD
KFWA 261300Z 2613/2712 28006KT 3SM BR SCT015
      TEMPO 2613/2617 BKN025
     FM261800 23008KT P6SM BKN150
     FM262300 15010KT P6SM VCTS BKN100CB
     FM270200 16012KT 4SM -TSRA BR BKN035CB
     FM270800 28008KT P6SM OVC015=

USA.gov is the U.S. government's official web portal to all federal, state and local government web resources and services.